createdAt,value
2023-01-20T00:06:47.246Z,54.90
2023-01-20T00:30:16.852Z,56.60
2023-01-20T00:55:59.186Z,56.40
2023-01-20T01:16:08.392Z,57.00
2023-01-20T02:01:07.102Z,49.77
2023-01-20T02:26:46.635Z,49.67
2023-01-20T03:07:02.002Z,67.50
2023-01-20T03:17:41.074Z,64.63
2023-01-20T03:58:18.226Z,72.43
2023-01-20T04:28:39.503Z,77.77
2023-01-20T04:53:24.822Z,71.40
2023-01-20T06:03:36.316Z,47.33
2023-01-20T07:04:19.950Z,62.20
2023-01-20T07:29:28.019Z,61.03
2023-01-20T09:19:20.075Z,40.30
2023-01-20T09:54:26.930Z,35.10
2023-01-20T10:20:16.090Z,36.37
2023-01-20T10:34:56.761Z,34.20
2023-01-20T11:42:30.538Z,29.30
2023-01-20T12:17:43.859Z,31.30
2023-01-20T12:53:39.057Z,32.67
2023-01-20T13:23:38.143Z,21.43
2023-01-20T14:19:09.349Z,18.23
2023-01-20T14:54:36.586Z,26.87
2023-01-20T15:15:31.793Z,27.40
2023-01-20T15:55:34.142Z,29.10
2023-01-20T16:26:12.948Z,20.37
2023-01-20T17:47:00.587Z,21.03
2023-01-20T18:12:58.054Z,21.17
2023-01-20T18:17:18.268Z,19.43
2023-01-20T18:38:18.205Z,15.00
2023-01-20T19:13:44.035Z,15.77
2023-01-20T19:38:24.720Z,12.23
2023-01-20T20:04:01.124Z,15.47
2023-01-20T20:49:51.112Z,14.63
2023-01-20T21:15:23.730Z,8.33
2023-01-20T21:50:31.168Z,15.33
2023-01-20T22:21:04.973Z,11.47
2023-01-20T22:51:28.370Z,8.87
2023-01-20T23:21:57.727Z,11.20
2023-01-20T23:47:25.237Z,15.23
